createdAt,value
2022-10-28T00:02:34.389Z,84.83
2022-10-28T00:05:38.734Z,84.35
2022-10-28T00:08:44.030Z,83.11
2022-10-28T00:11:48.379Z,82.54
2022-10-28T00:14:52.956Z,82.75
2022-10-28T00:17:57.239Z,83.07
2022-10-28T00:21:03.787Z,82.48
2022-10-28T00:24:10.583Z,82.34
2022-10-28T00:27:15.062Z,81.68
2022-10-28T00:30:19.628Z,83.35
2022-10-28T00:33:23.920Z,81.43
2022-10-28T00:36:32.434Z,82.17
2022-10-28T00:39:36.779Z,81.65
2022-10-28T00:42:41.215Z,80.24
2022-10-28T00:45:45.724Z,82.22
2022-10-28T00:48:55.860Z,81.51
2022-10-28T00:52:08.786Z,81.42
2022-10-28T00:55:15.477Z,81.17
2022-10-28T00:58:22.422Z,80.33
2022-10-28T01:01:26.903Z,82.70
2022-10-28T01:04:31.480Z,83.25
2022-10-28T01:07:36.374Z,82.18
2022-10-28T01:11:18.771Z,82.06
2022-10-28T01:14:46.899Z,82.13
2022-10-28T01:18:00.507Z,82.15
2022-10-28T01:21:23.287Z,81.64
2022-10-28T01:24:59.584Z,81.63
2022-10-28T01:28:29.116Z,80.44
2022-10-28T01:31:48.201Z,80.03
2022-10-28T01:34:55.264Z,79.42
2022-10-28T01:38:20.755Z,80.05
2022-10-28T01:41:26.199Z,81.76
2022-10-28T01:44:47.937Z,79.65
2022-10-28T01:48:14.095Z,81.57
2022-10-28T01:51:24.589Z,80.31
2022-10-28T01:54:32.830Z,80.73
2022-10-28T01:57:40.284Z,80.32
2022-10-28T02:00:46.931Z,80.71
2022-10-28T02:03:52.764Z,80.53
2022-10-28T02:06:58.178Z,79.31
2022-10-28T02:10:34.926Z,79.60
2022-10-28T02:13:45.269Z,80.50
2022-10-28T02:16:55.989Z,80.69
2022-10-28T02:20:13.573Z,80.02
2022-10-28T02:23:38.071Z,78.82
2022-10-28T02:26:48.767Z,79.66
2022-10-28T02:30:12.711Z,78.79
2022-10-28T02:33:22.630Z,78.85
2022-10-28T02:36:30.680Z,79.15
2022-10-28T02:39:41.624Z,79.24
2022-10-28T02:42:52.141Z,77.26
2022-10-28T02:46:01.609Z,77.21
2022-10-28T02:49:11.830Z,76.76
2022-10-28T02:52:18.516Z,78.23
2022-10-28T02:55:26.409Z,76.93
2022-10-28T02:58:31.149Z,77.26
2022-10-28T03:01:35.620Z,77.46
2022-10-28T03:04:40.213Z,76.76
2022-10-28T03:07:45.078Z,75.79
2022-10-28T03:10:49.407Z,75.95
2022-10-28T03:13:53.896Z,75.34
2022-10-28T03:16:58.210Z,76.29
2022-10-28T03:20:02.545Z,75.60
2022-10-28T03:23:07.135Z,72.02
2022-10-28T03:26:11.609Z,74.77
2022-10-28T03:29:16.330Z,75.03
2022-10-28T03:35:29.974Z,74.38
2022-10-28T03:38:34.544Z,74.87
2022-10-28T03:41:39.164Z,75.34
2022-10-28T03:44:43.579Z,74.59
2022-10-28T03:47:48.377Z,74.19
2022-10-28T03:50:56.250Z,74.62
2022-10-28T03:54:00.634Z,74.69
2022-10-28T03:57:05.057Z,73.95
2022-10-28T04:00:09.927Z,73.70
2022-10-28T04:03:18.586Z,74.21
2022-10-28T04:06:22.992Z,73.84
2022-10-28T04:09:27.441Z,73.72
2022-10-28T04:12:31.685Z,74.13
2022-10-28T04:15:35.995Z,71.11
2022-10-28T04:18:40.597Z,73.19
2022-10-28T04:21:44.804Z,73.28
2022-10-28T04:24:49.064Z,72.78
2022-10-28T04:27:53.905Z,73.18
2022-10-28T04:30:58.351Z,72.18
2022-10-28T04:34:02.732Z,73.17
2022-10-28T04:37:07.248Z,71.90
2022-10-28T04:40:12.076Z,72.81
2022-10-28T04:43:16.871Z,72.04
2022-10-28T04:46:21.212Z,70.88
2022-10-28T04:49:25.653Z,71.88
2022-10-28T04:52:30.032Z,71.20
2022-10-28T04:55:34.487Z,71.85
2022-10-28T04:58:39.010Z,71.21
2022-10-28T05:01:43.526Z,70.98
2022-10-28T05:04:47.915Z,71.40
2022-10-28T05:07:52.805Z,70.92
2022-10-28T05:10:57.731Z,71.52
2022-10-28T05:14:01.920Z,71.11
2022-10-28T05:17:06.221Z,71.84
2022-10-28T05:20:12.627Z,70.94
2022-10-28T05:23:16.948Z,69.85
2022-10-28T05:26:21.373Z,69.52
2022-10-28T05:29:27.733Z,69.36
2022-10-28T05:32:35.464Z,69.65
2022-10-28T05:35:41.846Z,68.80
2022-10-28T05:38:47.995Z,66.93
2022-10-28T05:41:52.396Z,67.89
2022-10-28T05:44:56.815Z,68.03
2022-10-28T05:48:01.392Z,66.72
2022-10-28T05:51:05.982Z,66.66
2022-10-28T05:54:10.414Z,66.72
2022-10-28T05:57:16.321Z,66.49
2022-10-28T06:00:24.582Z,67.10
2022-10-28T06:03:31.144Z,68.21
2022-10-28T06:06:35.823Z,67.74
2022-10-28T06:09:40.011Z,67.34
2022-10-28T06:12:42.879Z,66.67
2022-10-28T06:15:54.938Z,65.60
2022-10-28T06:18:59.264Z,66.21
2022-10-28T06:22:03.608Z,65.73
2022-10-28T06:25:08.643Z,65.48
2022-10-28T06:28:12.992Z,64.50
2022-10-28T06:31:17.167Z,65.81
2022-10-28T06:34:21.309Z,62.34
2022-10-28T06:37:26.739Z,61.14
2022-10-28T06:40:31.294Z,61.22
2022-10-28T06:43:35.655Z,61.81
2022-10-28T06:46:41.511Z,60.49
2022-10-28T06:49:45.904Z,59.90
2022-10-28T06:52:50.529Z,59.14
2022-10-28T06:55:59.510Z,59.58
2022-10-28T06:59:04.358Z,61.18
2022-10-28T07:02:10.698Z,61.39
2022-10-28T07:05:14.963Z,61.94
2022-10-28T07:08:19.402Z,62.27
2022-10-28T07:11:25.030Z,62.65
2022-10-28T07:14:29.557Z,62.56
2022-10-28T07:17:33.936Z,63.01
2022-10-28T07:20:38.229Z,62.91
2022-10-28T07:23:42.866Z,62.75
2022-10-28T07:26:54.286Z,62.72
2022-10-28T07:30:01.492Z,62.73
2022-10-28T07:33:07.483Z,62.83
2022-10-28T07:36:12.848Z,62.85
2022-10-28T07:39:17.670Z,62.84
2022-10-28T07:42:21.833Z,63.55
2022-10-28T07:45:26.721Z,61.02
2022-10-28T07:48:31.310Z,63.34
2022-10-28T07:51:36.276Z,62.90
2022-10-28T07:54:40.565Z,62.62
2022-10-28T07:57:44.937Z,62.73
2022-10-28T08:00:49.528Z,62.94
2022-10-28T08:03:53.861Z,63.18
2022-10-28T08:06:58.425Z,63.17
2022-10-28T08:10:02.577Z,63.36
2022-10-28T08:13:08.012Z,63.48
2022-10-28T08:16:12.606Z,63.81
2022-10-28T08:19:17.066Z,64.64
2022-10-28T08:22:21.489Z,63.38
2022-10-28T08:25:25.600Z,64.50
2022-10-28T08:28:30.227Z,64.78
2022-10-28T08:31:35.072Z,64.00
2022-10-28T08:34:42.648Z,64.55
2022-10-28T08:37:53.212Z,64.52
2022-10-28T08:41:25.871Z,64.26
2022-10-28T08:44:49.054Z,65.24
2022-10-28T08:48:06.972Z,65.50
2022-10-28T08:51:21.553Z,65.68
2022-10-28T08:54:52.442Z,65.80
2022-10-28T08:58:32.555Z,66.53
2022-10-28T09:01:47.384Z,66.64
2022-10-28T09:05:14.644Z,67.12
2022-10-28T09:08:24.446Z,68.23
2022-10-28T09:11:56.444Z,68.33
2022-10-28T09:15:27.383Z,68.67
2022-10-28T09:18:56.619Z,69.14
2022-10-28T09:22:25.128Z,69.32
2022-10-28T09:25:41.111Z,68.65
2022-10-28T09:29:03.850Z,68.84
2022-10-28T09:32:29.449Z,69.64
2022-10-28T09:35:43.928Z,69.79
2022-10-28T09:38:49.248Z,69.74
2022-10-28T09:41:55.783Z,70.15
2022-10-28T09:45:06.370Z,70.03
2022-10-28T09:48:30.768Z,70.44
2022-10-28T09:52:00.468Z,70.60
2022-10-28T09:55:16.404Z,70.87
2022-10-28T09:58:20.985Z,70.58
2022-10-28T10:01:25.505Z,71.14
2022-10-28T10:04:36.542Z,70.92
2022-10-28T10:07:47.376Z,70.95
2022-10-28T10:11:01.928Z,70.81
2022-10-28T10:14:13.690Z,71.41
2022-10-28T10:17:24.039Z,71.47
2022-10-28T10:20:28.558Z,70.81
2022-10-28T10:23:34.249Z,70.99
2022-10-28T10:26:38.509Z,71.97
2022-10-28T10:29:45.978Z,73.66
2022-10-28T10:32:50.947Z,73.57
2022-10-28T10:36:16.840Z,73.33
2022-10-28T10:39:37.771Z,73.22
2022-10-28T10:42:51.717Z,73.08
2022-10-28T10:46:19.471Z,73.51
2022-10-28T10:49:24.040Z,73.34
2022-10-28T10:52:29.303Z,73.60
2022-10-28T10:55:43.002Z,73.72
2022-10-28T10:58:54.880Z,74.16
2022-10-28T11:02:01.091Z,74.08
2022-10-28T11:05:09.818Z,74.56
2022-10-28T11:08:33.125Z,75.03
2022-10-28T11:11:40.239Z,75.17
2022-10-28T11:15:22.237Z,74.08
2022-10-28T11:18:30.062Z,74.65
2022-10-28T11:22:00.421Z,74.63
2022-10-28T11:25:34.053Z,74.15
2022-10-28T11:28:45.041Z,74.97
2022-10-28T11:31:55.272Z,74.72
2022-10-28T11:35:19.526Z,73.93
2022-10-28T11:38:52.039Z,74.40
2022-10-28T11:42:34.689Z,75.59
2022-10-28T11:46:08.700Z,76.73
2022-10-28T11:49:42.371Z,75.72
2022-10-28T11:53:10.794Z,76.01
2022-10-28T11:56:18.196Z,75.27
2022-10-28T11:59:43.141Z,75.13
2022-10-28T12:03:05.337Z,75.10
2022-10-28T12:06:30.495Z,75.81
2022-10-28T12:09:52.681Z,76.10
2022-10-28T12:13:20.383Z,76.41
2022-10-28T12:16:44.875Z,76.32
2022-10-28T12:19:59.745Z,77.84
2022-10-28T12:23:16.628Z,77.48
2022-10-28T12:26:22.450Z,76.45
2022-10-28T12:29:41.565Z,77.65
2022-10-28T12:32:46.952Z,78.02
2022-10-28T12:36:20.187Z,77.68
2022-10-28T12:39:29.998Z,77.23
2022-10-28T12:42:45.063Z,77.47
2022-10-28T12:45:51.500Z,78.08
2022-10-28T12:49:01.431Z,78.32
2022-10-28T12:52:34.313Z,78.34
2022-10-28T12:55:49.663Z,78.02
2022-10-28T12:58:54.080Z,78.07
2022-10-28T13:02:02.087Z,77.59
2022-10-28T13:05:07.810Z,78.31
2022-10-28T13:08:49.172Z,78.75
2022-10-28T13:11:56.348Z,78.69
2022-10-28T13:15:19.551Z,79.59
2022-10-28T13:18:48.518Z,78.62
2022-10-28T13:22:12.459Z,79.49
2022-10-28T13:25:38.537Z,77.70
2022-10-28T13:28:51.613Z,76.92
2022-10-28T13:31:56.970Z,76.81
2022-10-28T13:35:11.881Z,76.66
2022-10-28T13:38:26.958Z,76.13
2022-10-28T13:41:37.882Z,75.88
2022-10-28T13:44:50.068Z,76.91
2022-10-28T13:48:29.770Z,78.90
2022-10-28T13:51:35.216Z,79.40
2022-10-28T13:54:45.734Z,77.91
2022-10-28T13:57:53.779Z,76.74
2022-10-28T14:01:18.465Z,77.13
2022-10-28T14:04:27.904Z,76.92
2022-10-28T14:07:34.770Z,78.52
2022-10-28T14:10:41.329Z,79.29
2022-10-28T14:14:01.181Z,80.47
2022-10-28T14:17:06.869Z,79.95
2022-10-28T14:20:53.473Z,79.25
2022-10-28T14:24:11.661Z,78.57
2022-10-28T14:27:45.383Z,79.07
2022-10-28T14:31:12.374Z,83.02
2022-10-28T14:34:18.538Z,81.64
2022-10-28T14:37:25.845Z,81.95
2022-10-28T14:40:36.890Z,79.99
2022-10-28T14:43:44.040Z,79.31
2022-10-28T14:46:57.000Z,79.87
2022-10-28T14:50:27.657Z,78.86
2022-10-28T14:53:35.296Z,78.53
2022-10-28T14:56:41.601Z,78.14
2022-10-28T14:59:47.069Z,77.73
2022-10-28T15:02:52.628Z,77.84
2022-10-28T15:05:57.382Z,77.65
2022-10-28T15:09:20.671Z,78.89
2022-10-28T15:12:27.025Z,79.97
2022-10-28T15:15:38.591Z,80.76
2022-10-28T15:18:48.810Z,80.42
2022-10-28T15:22:04.657Z,81.17
2022-10-28T15:25:15.009Z,82.46
2022-10-28T15:28:19.330Z,81.71
2022-10-28T15:31:23.849Z,81.27
2022-10-28T15:34:30.774Z,80.42
2022-10-28T15:37:37.741Z,79.89
2022-10-28T15:40:41.946Z,78.78
2022-10-28T15:43:56.511Z,78.18
2022-10-28T15:47:04.019Z,77.33
2022-10-28T15:50:17.409Z,78.35
2022-10-28T15:53:24.065Z,78.74
2022-10-28T15:56:28.939Z,80.36
2022-10-28T15:59:33.357Z,82.09
2022-10-28T16:02:43.287Z,81.84
2022-10-28T16:05:48.415Z,80.23
2022-10-28T16:09:11.247Z,79.96
2022-10-28T16:12:22.727Z,80.28
2022-10-28T16:15:27.262Z,80.25
2022-10-28T16:18:34.691Z,81.48
2022-10-28T16:21:40.184Z,81.84
2022-10-28T16:24:44.707Z,82.99
2022-10-28T16:27:50.881Z,82.53
2022-10-28T16:30:57.573Z,82.13
2022-10-28T16:34:02.171Z,81.02
2022-10-28T16:37:21.823Z,79.92
2022-10-28T16:43:51.046Z,79.97
2022-10-28T16:46:55.584Z,81.23
2022-10-28T16:50:01.568Z,81.67
2022-10-28T16:53:06.763Z,80.73
2022-10-28T16:56:14.672Z,79.48
2022-10-28T16:59:20.633Z,80.91
2022-10-28T17:02:33.781Z,79.99
2022-10-28T17:05:38.310Z,80.28
2022-10-28T17:09:02.003Z,81.02
2022-10-28T17:12:07.283Z,81.40
2022-10-28T17:15:12.259Z,81.98
2022-10-28T17:18:16.898Z,81.08
2022-10-28T17:21:21.737Z,81.24
2022-10-28T17:24:26.352Z,81.66
2022-10-28T17:27:31.074Z,81.15
2022-10-28T17:30:36.446Z,81.31
2022-10-28T17:33:41.217Z,81.06
2022-10-28T17:36:47.215Z,81.29
2022-10-28T17:39:51.908Z,80.35
2022-10-28T17:42:59.662Z,79.64
2022-10-28T17:46:08.471Z,81.13
2022-10-28T17:49:12.920Z,81.22
2022-10-28T17:52:17.591Z,82.04
2022-10-28T17:55:22.162Z,82.19
2022-10-28T17:58:26.933Z,81.16
2022-10-28T18:01:33.557Z,80.19
2022-10-28T18:04:38.204Z,81.09
2022-10-28T18:07:42.971Z,81.37
2022-10-28T18:11:00.637Z,82.22
2022-10-28T18:14:05.870Z,82.49
2022-10-28T18:17:10.267Z,82.30
2022-10-28T18:20:14.729Z,80.72
2022-10-28T18:23:19.400Z,80.46
2022-10-28T18:26:23.957Z,79.99
2022-10-28T18:29:28.715Z,80.15
2022-10-28T18:32:34.306Z,79.11
2022-10-28T18:35:39.009Z,78.73
2022-10-28T18:38:43.553Z,79.29
2022-10-28T18:41:48.065Z,79.93
2022-10-28T18:44:59.190Z,80.28
2022-10-28T18:48:06.566Z,81.22
2022-10-28T18:51:14.017Z,80.25
2022-10-28T18:54:20.357Z,80.79
2022-10-28T18:57:26.328Z,80.44
2022-10-28T19:00:30.790Z,81.18
2022-10-28T19:03:35.686Z,82.08
2022-10-28T19:06:42.029Z,81.66
2022-10-28T19:09:46.684Z,81.08
2022-10-28T19:12:53.211Z,79.63
2022-10-28T19:15:58.557Z,80.25
2022-10-28T19:19:05.225Z,81.23
2022-10-28T19:22:09.634Z,80.77
2022-10-28T19:25:14.141Z,81.07
2022-10-28T19:28:18.847Z,80.64
2022-10-28T19:31:25.790Z,81.95
2022-10-28T19:34:31.004Z,82.04
2022-10-28T19:37:36.107Z,81.62
2022-10-28T19:40:40.850Z,81.82
2022-10-28T19:43:46.425Z,82.32
2022-10-28T19:46:51.194Z,80.93
2022-10-28T19:49:55.828Z,80.28
2022-10-28T19:53:00.194Z,80.67
2022-10-28T19:56:05.924Z,79.87
2022-10-28T19:59:10.284Z,79.36
2022-10-28T20:02:15.044Z,79.06
2022-10-28T20:05:19.783Z,78.72
2022-10-28T20:08:24.189Z,79.60
2022-10-28T20:11:32.590Z,79.95
2022-10-28T20:14:37.159Z,80.29
2022-10-28T20:17:41.630Z,80.36
2022-10-28T20:20:46.029Z,79.57
2022-10-28T20:23:56.243Z,79.84
2022-10-28T20:27:00.784Z,80.13
2022-10-28T20:30:05.669Z,79.70
2022-10-28T20:33:09.934Z,80.60
2022-10-28T20:36:30.756Z,81.04
2022-10-28T20:39:35.229Z,80.17
2022-10-28T20:42:39.828Z,79.56
2022-10-28T20:45:44.737Z,80.98
2022-10-28T20:48:49.673Z,80.89
2022-10-28T20:51:54.291Z,81.13
2022-10-28T20:54:58.897Z,80.86
2022-10-28T20:58:03.702Z,81.32
2022-10-28T21:01:13.283Z,81.24
2022-10-28T21:04:18.312Z,80.67
2022-10-28T21:07:22.849Z,81.21
2022-10-28T21:10:27.423Z,81.21
2022-10-28T21:13:32.206Z,80.60
2022-10-28T21:16:36.740Z,81.62
2022-10-28T21:19:41.317Z,82.58
2022-10-28T21:22:46.125Z,82.86
2022-10-28T21:25:58.633Z,81.96
2022-10-28T21:29:03.196Z,82.08
2022-10-28T21:32:07.939Z,82.02
2022-10-28T21:35:12.583Z,81.92
2022-10-28T21:38:17.977Z,81.72
2022-10-28T21:41:23.330Z,81.85
2022-10-28T21:44:27.901Z,81.49
2022-10-28T21:47:32.634Z,81.29
2022-10-28T21:50:37.056Z,81.61
2022-10-28T21:53:41.833Z,81.93
2022-10-28T21:56:47.522Z,81.13
2022-10-28T21:59:51.788Z,80.63
2022-10-28T22:02:56.403Z,82.04
2022-10-28T22:06:00.832Z,81.69
2022-10-28T22:09:05.450Z,80.06
2022-10-28T22:12:10.247Z,79.41
2022-10-28T22:15:14.750Z,79.28
2022-10-28T22:18:19.338Z,79.39
2022-10-28T22:21:26.760Z,79.08
2022-10-28T22:24:30.902Z,80.37
2022-10-28T22:27:35.333Z,80.76
2022-10-28T22:30:39.630Z,80.48
2022-10-28T22:33:44.125Z,79.26
2022-10-28T22:36:48.490Z,78.98
2022-10-28T22:39:52.765Z,79.74
2022-10-28T22:42:57.106Z,79.64
2022-10-28T22:46:02.067Z,81.34
2022-10-28T22:49:06.357Z,79.50
2022-10-28T22:52:10.634Z,78.99
2022-10-28T22:55:15.115Z,78.54
2022-10-28T22:58:19.709Z,77.73
2022-10-28T23:01:26.150Z,75.50
2022-10-28T23:04:30.710Z,73.43
2022-10-28T23:07:34.900Z,72.75
2022-10-28T23:10:39.362Z,75.51
2022-10-28T23:13:43.983Z,77.86
2022-10-28T23:16:51.590Z,76.16
2022-10-28T23:19:56.093Z,76.84
2022-10-28T23:23:00.460Z,76.31
2022-10-28T23:26:05.371Z,76.84
2022-10-28T23:29:09.701Z,78.41
2022-10-28T23:32:14.216Z,78.46
2022-10-28T23:35:18.686Z,77.01
2022-10-28T23:38:23.650Z,77.33
2022-10-28T23:41:28.431Z,77.35
2022-10-28T23:44:32.892Z,75.03
2022-10-28T23:47:37.787Z,73.98
2022-10-28T23:50:42.590Z,73.73
2022-10-28T23:53:47.213Z,73.95
2022-10-28T23:56:51.586Z,74.49
2022-10-28T23:59:56.053Z,76.07
